Time;durP1;ratioP1;P1;durP2;ratioP2;P2;SDS_P1;SDS_P2;PMS_P1;PMS_P2;Temp;Humidity;BMP_temperature;BMP_pressure;BME280_temperature;BME280_humidity;BME280_pressure;Samples;Min_cycle;Max_cycle;Signal;HPM_P1;HPM_P2
2021/12/05 00:24:47;;;;;;;1999.90;999.90;;;;;;;2.88;100.00;98734.94;5094781;28;20369;-34
2021/12/05 00:27:26;;;;;;;1999.90;999.90;;;;;;;2.96;100.00;98731.22;5094219;28;20032;-34
2021/12/05 00:30:11;;;;;;;1999.90;999.90;;;;;;;3.04;100.00;98735.38;5094128;28;20091;-34
2021/12/05 00:56:20;;;;;;;1999.90;999.90;;;;;;;3.44;100.00;98737.59;5093949;28;20483;-34
2021/12/05 01:04:25;;;;;;;1999.90;999.90;;;;;;;3.57;100.00;98740.06;5093451;28;20024;-34
2021/12/05 01:12:36;;;;;;;1999.90;999.90;;;;;;;3.69;100.00;98745.41;5093340;28;20439;-34
2021/12/05 01:15:09;;;;;;;1999.90;999.90;;;;;;;3.71;100.00;98747.81;5093433;28;20028;-34
2021/12/05 01:18:01;;;;;;;1999.90;999.90;;;;;;;3.68;100.00;98752.50;5093285;28;20557;-34
2021/12/05 01:20:39;;;;;;;1999.90;999.90;;;;;;;3.61;100.00;98741.25;5093201;28;20024;-34
2021/12/05 01:23:14;;;;;;;1999.90;999.90;;;;;;;3.67;100.00;98745.63;5093118;28;20480;-34
2021/12/05 01:25:49;;;;;;;1999.90;999.90;;;;;;;3.78;100.00;98738.78;5093214;28;20028;-34
2021/12/05 01:31:20;;;;;;;1999.90;999.90;;;;;;;3.90;100.00;98722.22;5093559;28;20043;-34
2021/12/05 01:34:00;;;;;;;1999.90;999.90;;;;;;;3.94;100.00;98720.75;5092873;28;20085;-34
2021/12/05 01:36:39;;;;;;;1999.90;999.90;;;;;;;3.98;100.00;98719.28;5092764;28;20442;-34
2021/12/05 01:52:53;;;;;;;1999.90;999.90;;;;;;;3.97;100.00;98707.91;5092660;28;20024;-34
2021/12/05 02:09:20;;;;;;;1999.90;999.90;;;;;;;3.94;100.00;98712.84;5092635;28;20403;-34
2021/12/05 02:34:05;;;;;;;1999.90;999.90;;;;;;;4.31;100.00;98708.22;5091994;28;20028;-34
2021/12/05 02:39:25;;;;;;;1999.90;999.90;;;;;;;4.35;100.00;98698.81;5091978;28;20028;-34
2021/12/05 02:41:53;;;;;;;1999.90;999.90;;;;;;;4.41;100.00;98697.13;5092253;28;20039;-34
2021/12/05 02:44:24;;;;;;;1999.90;999.90;;;;;;;4.43;100.00;98695.03;5091936;28;20294;-34
2021/12/05 02:47:01;;;;;;;1999.90;999.90;;;;;;;4.41;100.00;98701.59;5090646;28;20032;-34
2021/12/05 02:49:29;;;;;;;1999.90;999.90;;;;;;;4.46;100.00;98699.84;5091926;28;20107;-34
2021/12/05 02:52:00;;;;;;;1999.90;999.90;;;;;;;4.51;100.00;98707.13;5091758;28;20024;-34
2021/12/05 02:54:32;;;;;;;1999.90;999.90;;;;;;;4.59;100.00;98698.84;5092021;28;20403;-34
2021/12/05 02:56:59;;;;;;;1999.90;999.90;;;;;;;4.64;100.00;98706.88;5091745;28;20028;-34
2021/12/05 02:59:39;;;;;;;1999.90;999.90;;;;;;;4.65;100.00;98710.31;5091745;28;20028;-34
2021/12/05 03:02:18;;;;;;;1999.90;999.90;;;;;;;4.73;100.00;98716.06;5090728;28;20028;-34
2021/12/05 03:04:49;;;;;;;1999.90;999.90;;;;;;;4.65;100.00;98702.41;5091813;28;20110;-34
2021/12/05 03:07:19;;;;;;;1999.90;999.90;;;;;;;4.68;100.00;98705.41;5091911;28;20032;-34
2021/12/05 03:09:45;;;;;;;1999.90;999.90;;;;;;;4.72;100.00;98703.88;5091700;28;20384;-34
2021/12/05 03:12:18;;;;;;;1999.90;999.90;;;;;;;4.81;100.00;98711.47;5091548;28;20047;-34
2021/12/05 03:14:46;;;;;;;1999.90;999.90;;;;;;;4.83;100.00;98710.22;5091533;28;20028;-33
2021/12/05 03:17:13;;;;;;;1999.90;999.90;;;;;;;4.85;100.00;98696.78;5091822;28;20042;-34
2021/12/05 03:19:39;;;;;;;1999.90;999.90;;;;;;;4.86;100.00;98693.91;5091520;28;20034;-34
2021/12/05 03:22:05;;;;;;;1999.90;999.90;;;;;;;4.85;100.00;98694.94;5091860;28;20016;-34
2021/12/05 03:24:31;;;;;;;1999.90;999.90;;;;;;;4.93;100.00;98692.97;5091872;28;20059;-34
2021/12/05 03:26:58;;;;;;;1999.90;999.90;;;;;;;4.87;100.00;98695.53;5091709;28;20035;-34
2021/12/05 03:29:24;;;;;;;1999.90;999.90;;;;;;;4.98;100.00;98685.19;5091823;28;20028;-34
2021/12/05 03:31:52;;;;;;;1999.90;999.90;;;;;;;5.04;100.00;98685.03;5091742;28;20461;-34
2021/12/05 03:34:22;;;;;;;1999.90;999.90;;;;;;;4.99;100.00;98679.66;5091676;28;20067;-34
2021/12/05 03:36:51;;;;;;;1999.90;999.90;;;;;;;5.05;100.00;98685.84;5091330;28;20048;-34
2021/12/05 03:39:17;;;;;;;1999.90;999.90;;;;;;;5.02;100.00;98678.38;5091366;28;20506;-34
2021/12/05 03:41:44;;;;;;;1999.90;999.90;;;;;;;5.04;100.00;98671.06;5091361;28;20028;-34
2021/12/05 03:44:12;;;;;;;1999.90;999.90;;;;;;;5.05;100.00;98675.28;5091282;28;20020;-34
2021/12/05 03:46:38;;;;;;;1999.90;999.90;;;;;;;5.10;100.00;98664.03;5091289;28;20025;-34
2021/12/05 03:49:07;;;;;;;1999.90;999.90;;;;;;;5.11;100.00;98671.72;5092932;28;20555;-34
2021/12/05 03:51:37;;;;;;;1999.90;999.90;;;;;;;5.11;100.00;98674.38;5094865;28;20028;-34
2021/12/05 03:54:05;;;;;;;1999.90;999.90;;;;;;;5.11;100.00;98674.38;5094788;28;20040;-34
2021/12/05 03:56:32;;;;;;;1999.90;999.90;;;;;;;5.08;100.00;98667.72;5095000;28;20031;-34
2021/12/05 03:58:58;;;;;;;1999.90;999.90;;;;;;;5.12;100.00;98672.53;5095250;28;20031;-34
2021/12/05 04:01:27;;;;;;;1999.90;999.90;;;;;;;5.09;100.00;98676.41;5094723;28;20051;-34
2021/12/05 04:03:53;;;;;;;1999.90;999.90;;;;;;;5.10;100.00;98679.88;5095444;28;20115;-34
2021/12/05 04:06:20;;;;;;;1999.90;999.90;;;;;;;5.15;100.00;98680.75;5094573;28;20028;-34
2021/12/05 04:08:47;;;;;;;1999.90;999.90;;;;;;;5.19;100.00;98681.13;5094811;28;20552;-34
2021/12/05 04:11:23;;;;;;;1999.90;999.90;;;;;;;5.19;100.00;98673.19;5094260;28;20131;-34
2021/12/05 04:13:49;;;;;;;1999.90;999.90;;;;;;;5.23;100.00;98676.97;5094759;28;20043;-34
2021/12/05 04:16:15;;;;;;;1999.90;999.90;;;;;;;5.27;100.00;98686.06;5094667;28;20559;-34
2021/12/05 04:18:42;;;;;;;1999.90;999.90;;;;;;;5.25;100.00;98678.31;5094752;28;20038;-34
2021/12/05 04:21:08;;;;;;;1999.90;999.90;;;;;;;5.30;100.00;98682.13;5094501;28;20032;-34
2021/12/05 04:23:34;;;;;;;1999.90;999.90;;;;;;;5.30;100.00;98682.13;5094596;28;20407;-34
2021/12/05 04:26:00;;;;;;;1999.90;999.90;;;;;;;5.34;100.00;98678.75;5094527;28;20452;-34
2021/12/05 04:28:26;;;;;;;1999.90;999.90;;;;;;;5.40;100.00;98684.97;5094492;28;20028;-34
2021/12/05 04:30:52;;;;;;;1999.90;999.90;;;;;;;5.42;100.00;98686.34;5094183;28;20404;-34
2021/12/05 04:33:18;;;;;;;1999.90;999.90;;;;;;;5.52;100.00;98688.38;5093973;28;20051;-34
2021/12/05 04:35:44;;;;;;;1999.90;999.90;;;;;;;5.58;100.00;98676.84;5094438;28;20059;-33
2021/12/05 04:38:10;;;;;;;;;;;;;;;5.57;100.00;98683.19;5093247;28;20373;-34
2021/12/05 04:40:36;;;;;;;1999.90;999.90;;;;;;;5.63;100.00;98676.16;5093942;28;19919;-34
2021/12/05 04:43:03;;;;;;;1999.90;999.90;;;;;;;5.69;100.00;98677.84;5093937;28;20484;-34
2021/12/05 04:45:31;;;;;;;1999.90;999.90;;;;;;;5.68;100.00;98683.38;5093837;28;20039;-34
2021/12/05 04:47:58;;;;;;;1999.90;999.90;;;;;;;5.72;100.00;98679.22;5093777;28;20035;-34
2021/12/05 04:50:25;;;;;;;1999.90;999.90;;;;;;;5.71;100.00;98669.66;5093767;28;20020;-34
2021/12/05 04:52:51;;;;;;;1999.90;999.90;;;;;;;5.74;100.00;98670.03;5093815;28;20028;-34
2021/12/05 04:55:18;;;;;;;1999.90;999.90;;;;;;;5.85;100.00;98668.34;5093665;28;20462;-34
2021/12/05 04:57:44;;;;;;;1999.90;999.90;;;;;;;5.92;100.00;98670.84;5093568;28;20107;-34
2021/12/05 05:00:15;;;;;;;1999.90;999.90;;;;;;;5.91;100.00;98671.88;5093106;28;20491;-34
2021/12/05 05:02:41;;;;;;;1999.90;999.90;;;;;;;5.92;100.00;98674.28;5093521;28;20111;-34
2021/12/05 05:05:09;;;;;;;1999.90;999.90;;;;;;;5.99;100.00;98679.47;5093483;28;20027;-34
2021/12/05 05:07:36;;;;;;;1999.90;999.90;;;;;;;5.99;100.00;98674.19;5093650;28;20064;-34
2021/12/05 05:10:16;;;;;;;1999.90;999.90;;;;;;;6.02;100.00;98668.41;5093356;28;20036;-34
2021/12/05 05:12:42;;;;;;;1999.90;999.90;;;;;;;5.99;100.00;98678.66;5093148;28;20111;-34
2021/12/05 05:15:08;;;;;;;1999.90;999.90;;;;;;;5.96;100.00;98678.06;5092072;28;20098;-34
2021/12/05 05:17:35;;;;;;;1999.90;999.90;;;;;;;5.99;100.00;98670.72;5093117;28;20024;-34
2021/12/05 05:20:03;;;;;;;1999.90;999.90;;;;;;;6.03;100.00;98674.50;5093192;28;20024;-34
2021/12/05 05:41:56;;;;;;;1999.90;999.90;;;;;;;6.18;100.00;98697.75;5091265;28;20112;-34
2021/12/05 05:51:53;;;;;;;1999.90;999.90;;;;;;;6.28;100.00;98704.03;5091193;28;20039;-34
2021/12/05 05:54:19;;;;;;;1999.90;999.90;;;;;;;6.34;100.00;98706.75;5090339;28;20036;-34
2021/12/05 05:56:46;;;;;;;1999.90;999.90;;;;;;;6.29;100.00;98699.53;5090401;28;20093;-34
2021/12/05 05:59:24;;;;;;;1999.90;999.90;;;;;;;6.30;100.00;98701.13;5090386;28;20080;-34
2021/12/05 06:04:16;;;;;;;1999.90;999.90;;;;;;;6.37;100.00;98703.59;5093317;28;20054;-34
2021/12/05 06:06:41;;;;;;;1999.90;999.90;;;;;;;6.42;100.00;98704.50;5092285;28;20052;-34
2021/12/05 06:09:08;;;;;;;1999.90;999.90;;;;;;;6.44;100.00;98702.41;5092642;28;20035;-34
2021/12/05 06:11:33;;;;;;;;;;;;;;;6.51;100.00;98710.19;5091764;28;20044;-34
2021/12/05 06:13:59;;;;;;;1999.90;999.90;;;;;;;6.43;100.00;98707.94;5092191;28;20216;-34
2021/12/05 06:16:25;;;;;;;1999.90;999.90;;;;;;;6.45;100.00;98709.31;5092512;28;20043;-33
2021/12/05 06:18:51;;;;;;;1999.90;999.90;;;;;;;6.45;100.00;98705.88;5092093;28;20051;-34
2021/12/05 06:21:17;;;;;;;1999.90;999.90;;;;;;;6.45;100.00;98709.31;5092510;28;20024;-34
2021/12/05 06:23:43;;;;;;;1999.90;999.90;;;;;;;6.51;100.00;98698.81;5092116;28;20044;-34
2021/12/05 06:26:11;;;;;;;1999.90;999.90;;;;;;;6.51;100.00;98694.31;5074133;28;20232;-34
2021/12/05 06:28:43;;;;;;;1999.90;999.90;;;;;;;6.59;100.00;98706.34;5092027;28;20032;-34
2021/12/05 06:32:16;;;;;;;1999.90;999.90;;;;;;;6.62;100.00;98711.97;5092042;28;20028;-34
2021/12/05 06:42:46;;;;;;;1999.90;999.90;;;;;;;6.80;100.00;98721.47;5110053;28;20039;-34
2021/12/05 06:47:56;;;;;;;1999.90;999.90;;;;;;;6.89;100.00;98729.03;5092145;28;20092;-34
2021/12/05 06:50:22;;;;;;;1999.90;999.90;;;;;;;6.96;100.00;98727.81;5091872;28;20020;-34
2021/12/05 06:52:48;;;;;;;1999.90;999.90;;;;;;;6.96;100.00;98735.75;5091822;28;20032;-34
2021/12/05 06:55:16;;;;;;;1999.90;999.90;;;;;;;7.00;100.00;98736.06;5091693;28;20035;-34
2021/12/05 06:57:43;;;;;;;1999.90;999.90;;;;;;;7.06;100.00;98740.41;5091997;28;20510;-34
2021/12/05 07:00:19;;;;;;;1999.90;999.90;;;;;;;7.13;100.00;98743.66;5091742;28;20031;-34
2021/12/05 07:02:45;;;;;;;1999.90;999.90;;;;;;;7.12;100.00;98739.41;5092113;28;20028;-34
2021/12/05 07:05:34;;;;;;;1999.90;999.90;;;;;;;7.14;100.00;98734.66;5090502;28;20573;-34
2021/12/05 07:07:56;;;;;;;1999.90;999.90;;;;;;;7.13;100.00;98727.75;5091459;28;20024;-34
2021/12/05 07:10:22;;;;;;;1999.90;999.90;;;;;;;7.17;100.00;98726.22;5091624;28;20028;-34
2021/12/05 07:13:32;;;;;;;1999.90;999.90;;;;;;;7.15;100.00;98732.81;5091507;28;20105;-34
2021/12/05 07:42:41;;;;;;;1999.90;999.90;;;;;;;7.92;100.00;98746.19;5093505;28;20046;-33
2021/12/05 07:45:14;;;;;;;1999.90;999.90;;;;;;;8.01;100.00;98744.69;5092972;28;20032;-34
2021/12/05 07:47:44;;;;;;;1999.90;999.90;;;;;;;8.08;100.00;98734.69;5092893;28;20093;-34
2021/12/05 07:50:11;;;;;;;1999.90;999.90;;;;;;;8.06;100.00;98740.22;5092923;28;20089;-34
2021/12/05 07:52:41;;;;;;;1999.90;999.90;;;;;;;8.12;100.00;98740.25;5092851;28;20032;-34
2021/12/05 07:55:20;;;;;;;1999.90;999.90;;;;;;;8.13;100.00;98740.00;5092731;28;20485;-34
2021/12/05 07:58:25;;;;;;;1999.90;999.90;;;;;;;8.17;100.00;98735.81;5092726;28;20032;-34
2021/12/05 08:00:52;;;;;;;1999.90;999.90;;;;;;;8.23;100.00;98734.81;5092246;28;20083;-34
2021/12/05 08:16:59;;;;;;;1999.90;999.90;;;;;;;8.60;100.00;98711.25;5094804;28;20035;-34
2021/12/05 08:19:25;;;;;;;1999.90;999.90;;;;;;;8.68;100.00;98716.09;5094294;28;20027;-32
2021/12/05 08:21:57;;;;;;;1999.90;999.90;;;;;;;8.70;100.00;98717.41;5094337;28;20073;-32
2021/12/05 08:24:32;;;;;;;1999.90;999.90;;;;;;;8.71;100.00;98720.88;5094273;28;20126;-32
2021/12/05 08:26:58;;;;;;;1999.90;999.90;;;;;;;8.84;100.00;98724.94;5094253;28;20017;-32
2021/12/05 08:29:35;;;;;;;1999.90;999.90;;;;;;;8.82;100.00;98716.44;5094111;28;20031;-32
2021/12/05 08:32:25;;;;;;;1999.90;999.90;;;;;;;8.83;100.00;98705.53;5094334;28;20028;-32
2021/12/05 08:35:42;;;;;;;1999.90;999.90;;;;;;;8.88;100.00;98699.47;5093892;28;20491;-32
2021/12/05 08:43:42;;;;;;;1999.90;999.90;;;;;;;8.99;100.00;98700.34;5093939;28;20024;-32
2021/12/05 09:50:51;;;;;;;1999.90;999.90;;;;;;;9.45;100.00;98620.75;5093501;28;20035;-32
2021/12/05 10:13:33;;;;;;;1999.90;999.90;;;;;;;9.92;100.00;98621.63;5090448;28;20052;-32
2021/12/05 10:16:11;;;;;;;1999.90;999.90;;;;;;;9.92;100.00;98624.28;5092226;28;20044;-32
2021/12/05 10:27:20;;;;;;;1999.90;999.90;;;;;;;10.49;100.00;98619.75;5092739;28;20093;-32
2021/12/05 10:38:08;;;;;;;1999.90;999.90;;;;;;;10.17;100.00;98620.81;5091970;28;20020;-32
2021/12/05 10:40:42;;;;;;;1999.90;999.90;;;;;;;10.25;100.00;98619.50;5092021;28;20025;-32
2021/12/05 10:43:20;;;;;;;1999.90;999.90;;;;;;;10.32;100.00;98607.50;5092235;28;20051;-32
2021/12/05 10:46:03;;;;;;;1999.90;999.90;;;;;;;10.35;100.00;98608.88;5091881;28;20059;-32
2021/12/05 10:49:00;;;;;;;1999.90;999.90;;;;;;;10.44;100.00;98609.09;5092120;28;20136;-32
2021/12/05 10:51:29;;;;;;;1999.90;999.90;;;;;;;10.42;100.00;98603.25;5091928;28;20110;-32
2021/12/05 10:54:09;;;;;;;1999.90;999.90;;;;;;;10.55;100.00;98607.22;5092099;28;20032;-32
2021/12/05 10:56:41;;;;;;;1999.90;999.90;;;;;;;10.64;100.00;98610.91;5092171;28;20036;-32
2021/12/05 10:59:21;;;;;;;1999.90;999.90;;;;;;;10.76;100.00;98610.63;5095646;28;20115;-32
2021/12/05 11:01:58;;;;;;;1999.90;999.90;;;;;;;10.97;100.00;98598.03;5095966;28;20024;-32
2021/12/05 11:04:27;;;;;;;1999.90;999.90;;;;;;;11.14;100.00;98603.00;5096750;28;20032;-32
2021/12/05 11:07:00;;;;;;;1999.90;999.90;;;;;;;11.14;100.00;98597.66;5095783;28;20515;-32
2021/12/05 11:09:36;;;;;;;1999.90;999.90;;;;;;;11.12;100.00;98591.81;5095998;28;20028;-32
2021/12/05 11:12:10;;;;;;;1999.90;999.90;;;;;;;11.05;100.00;98594.00;5095633;28;20158;-32
2021/12/05 11:14:39;;;;;;;1999.90;999.90;;;;;;;11.02;100.00;98584.66;5095626;28;20036;-33
2021/12/05 11:17:06;;;;;;;1999.90;999.90;;;;;;;10.85;100.00;98585.00;5095556;28;20031;-32
2021/12/05 11:19:40;;;;;;;1999.90;999.90;;;;;;;10.83;100.00;98576.47;5095533;28;20054;-32
2021/12/05 11:22:17;;;;;;;1999.90;999.90;;;;;;;10.75;100.00;98582.41;5095529;28;20081;-32
2021/12/05 11:24:47;;;;;;;;;;;;;;;10.72;100.00;98574.91;5095961;28;20565;-33
2021/12/05 11:27:56;;;;;;;1999.90;999.90;;;;;;;10.61;100.00;98574.94;5095401;28;19912;-32
2021/12/05 11:30:36;;;;;;;1999.90;999.90;;;;;;;10.48;100.00;98576.34;5093331;28;20086;-32
2021/12/05 11:33:19;;;;;;;1999.90;999.90;;;;;;;10.35;100.00;98578.75;5093291;28;20036;-32
2021/12/05 11:35:58;;;;;;;1999.90;999.90;;;;;;;10.20;100.00;98579.56;5093314;28;20070;-32
2021/12/05 11:38:32;;;;;;;1999.90;999.90;;;;;;;10.24;100.00;98573.41;5093103;28;20562;-32
2021/12/05 11:41:10;;;;;;;1999.90;999.90;;;;;;;10.24;100.00;98570.75;5093146;28;20032;-32
2021/12/05 11:43:43;;;;;;;1999.90;999.90;;;;;;;10.24;100.00;98570.75;5093029;28;20059;-32
2021/12/05 11:46:28;;;;;;;1999.90;999.90;;;;;;;10.26;100.00;98563.31;5093056;28;20028;-32
2021/12/05 11:48:56;;;;;;;1999.90;999.90;;;;;;;10.22;100.00;98559.59;5092929;28;20032;-32
2021/12/05 11:51:40;;;;;;;1999.90;999.90;;;;;;;10.19;100.00;98557.47;5092868;28;20031;-32
2021/12/05 11:54:16;;;;;;;1999.90;999.90;;;;;;;10.13;100.00;98555.84;5092114;28;20051;-32
2021/12/05 11:56:53;;;;;;;1999.90;999.90;;;;;;;10.06;100.00;98558.81;5091930;28;20032;-32
2021/12/05 11:59:29;;;;;;;1999.90;999.90;;;;;;;10.04;100.00;98560.13;5092707;28;20093;-32
2021/12/05 12:02:03;;;;;;;1999.90;999.90;;;;;;;9.92;100.00;98563.84;5094623;28;20046;-32
2021/12/05 12:04:54;;;;;;;1999.90;999.90;;;;;;;9.89;100.00;98561.72;5095105;28;20496;-32
2021/12/05 12:07:27;;;;;;;1999.90;999.90;;;;;;;9.99;100.00;98561.72;5094144;28;20502;-32
2021/12/05 12:09:59;;;;;;;1999.90;999.90;;;;;;;10.11;100.00;98565.97;5093159;28;20024;-32
2021/12/05 12:12:25;;;;;;;1999.90;999.90;;;;;;;10.21;100.00;98567.84;5094297;28;20052;-32
2021/12/05 12:14:52;;;;;;;1999.90;999.90;;;;;;;10.39;100.00;98559.28;5094482;28;20031;-32
2021/12/05 12:17:18;;;;;;;1999.90;999.90;;;;;;;10.47;100.00;98557.97;5094439;28;20028;-32
2021/12/05 12:19:47;;;;;;;1999.90;999.90;;;;;;;10.60;100.00;98546.72;5094377;28;20024;-32
2021/12/05 12:22:16;;;;;;;1999.90;999.90;;;;;;;10.68;100.00;98548.81;5094373;28;20024;-32
2021/12/05 12:24:42;;;;;;;1999.90;999.90;;;;;;;10.62;100.00;98549.13;5094258;28;20028;-32
2021/12/05 12:27:09;;;;;;;1999.90;999.90;;;;;;;10.66;100.00;98544.84;5094288;28;20031;-32
2021/12/05 12:29:37;;;;;;;1999.90;999.90;;;;;;;10.76;100.00;98541.34;5094113;28;20020;-32
2021/12/05 12:32:12;;;;;;;1999.90;999.90;;;;;;;10.81;100.00;98536.00;5092953;28;20115;-32
2021/12/05 12:34:38;;;;;;;1999.90;999.90;;;;;;;10.73;100.00;98529.34;5094125;28;20089;-32
2021/12/05 12:37:06;;;;;;;1999.90;999.90;;;;;;;10.67;100.00;98539.25;5094092;28;20028;-32
2021/12/05 12:39:43;;;;;;;1999.90;999.90;;;;;;;10.66;100.00;98536.84;5093984;28;20035;-32
2021/12/05 12:42:20;;;;;;;1999.90;999.90;;;;;;;10.59;100.00;98537.13;5094273;28;20111;-32
2021/12/05 12:45:04;;;;;;;1999.90;999.90;;;;;;;10.51;100.00;98540.34;5094021;28;20107;-32
2021/12/05 12:47:38;;;;;;;1999.90;999.90;;;;;;;10.42;100.00;98537.44;5093959;28;20028;-32
2021/12/05 12:50:24;;;;;;;1999.90;999.90;;;;;;;10.26;100.00;98533.22;5094085;28;20032;-32
2021/12/05 12:52:55;;;;;;;1999.90;999.90;;;;;;;10.21;100.00;98541.22;5093806;28;20031;-32
2021/12/05 12:55:27;;;;;;;1999.90;999.90;;;;;;;10.07;100.00;98541.78;5093924;28;20469;-32
2021/12/05 12:57:53;;;;;;;1999.90;999.90;;;;;;;9.98;100.00;98546.03;5094061;28;20405;-32
2021/12/05 13:00:22;;;;;;;1999.90;999.90;;;;;;;9.85;100.00;98547.38;5093560;28;20537;-32
2021/12/05 13:02:58;;;;;;;1999.90;999.90;;;;;;;9.78;100.00;98546.84;5093689;28;20032;-32
2021/12/05 13:10:56;;;;;;;1999.90;999.90;;;;;;;9.42;100.00;98539.63;5093630;28;20062;-32
2021/12/05 13:13:27;;;;;;;1999.90;999.90;;;;;;;9.37;100.00;98536.19;5093427;28;20522;-32
2021/12/05 13:15:59;;;;;;;1999.90;999.90;;;;;;;9.24;100.00;98542.81;5093347;28;20031;-32
2021/12/05 13:18:35;;;;;;;1999.90;999.90;;;;;;;9.16;100.00;98552.13;5093303;28;20500;-32
2021/12/05 13:21:06;;;;;;;1999.90;999.90;;;;;;;9.14;100.00;98553.44;5092791;28;20492;-32
2021/12/05 13:23:38;;;;;;;1999.90;999.90;;;;;;;9.16;100.00;98562.75;5093189;28;20495;-32
2021/12/05 13:26:33;;;;;;;1999.90;999.90;;;;;;;9.18;100.00;98560.59;5093448;28;20073;-32
2021/12/05 13:29:10;;;;;;;1999.90;999.90;;;;;;;9.21;100.00;98559.28;5093048;28;20057;-32
2021/12/05 13:31:41;;;;;;;1999.90;999.90;;;;;;;9.20;100.00;98558.47;5093366;28;20047;-32
2021/12/05 13:34:21;;;;;;;1999.90;999.90;;;;;;;9.21;100.00;98549.44;5092870;28;20031;-32
2021/12/05 13:36:56;;;;;;;1999.90;999.90;;;;;;;9.16;100.00;98552.13;5093288;28;20463;-32
2021/12/05 13:39:39;;;;;;;1999.90;999.90;;;;;;;9.21;100.00;98557.44;5092824;28;20028;-32
2021/12/05 13:42:09;;;;;;;1999.90;999.90;;;;;;;9.23;100.00;98552.63;5092864;28;20111;-32
2021/12/05 13:44:59;;;;;;;1999.90;999.90;;;;;;;9.29;100.00;98553.44;5092726;28;20373;-32
2021/12/05 13:47:46;;;;;;;1999.90;999.90;;;;;;;9.31;100.00;98564.63;5093294;28;20032;-32
2021/12/05 13:50:29;;;;;;;1999.90;999.90;;;;;;;9.28;100.00;98563.28;5092613;28;20024;-32
2021/12/05 13:53:17;;;;;;;1999.90;999.90;;;;;;;9.32;100.00;98563.56;5092727;28;20048;-32
2021/12/05 13:55:55;;;;;;;1999.90;999.90;;;;;;;9.33;100.00;98567.81;5092420;28;20115;-32
2021/12/05 13:58:32;;;;;;;1999.90;999.90;;;;;;;9.36;100.00;98572.59;5092644;28;20047;-32
2021/12/05 14:01:20;;;;;;;1999.90;999.90;;;;;;;9.36;100.00;98569.16;5092498;28;20505;-32
2021/12/05 14:04:05;;;;;;;1999.90;999.90;;;;;;;9.36;100.00;98575.25;5092491;28;20399;-32
2021/12/05 14:07:09;;;;;;;1999.90;999.90;;;;;;;9.46;100.00;98585.91;5092796;28;20127;-32
2021/12/05 14:09:44;;;;;;;1999.90;999.90;;;;;;;9.50;100.00;98578.22;5092641;28;20054;-32
2021/12/05 14:12:18;;;;;;;1999.90;999.90;;;;;;;9.46;100.00;98577.94;5091970;28;20044;-32
2021/12/05 14:14:53;;;;;;;1999.90;999.90;;;;;;;9.45;100.00;98589.66;5092526;28;20047;-32
2021/12/05 14:17:40;;;;;;;1999.90;999.90;;;;;;;9.46;100.00;98580.59;5092218;28;20032;-32
2021/12/05 14:20:13;;;;;;;1999.90;999.90;;;;;;;9.47;100.00;98592.06;5092490;28;20020;-32
2021/12/05 14:22:41;;;;;;;1999.90;999.90;;;;;;;9.46;100.00;98588.56;5092205;28;20016;-32
2021/12/05 14:25:10;;;;;;;1999.90;999.90;;;;;;;9.48;100.00;98590.97;5092978;28;20020;-32
2021/12/05 14:27:39;;;;;;;1999.90;999.90;;;;;;;9.50;100.00;98588.03;5092390;28;20028;-32
2021/12/05 14:30:11;;;;;;;1999.90;999.90;;;;;;;9.42;100.00;98582.19;5092044;28;20119;-32
2021/12/05 14:32:39;;;;;;;1999.90;999.90;;;;;;;9.40;100.00;98581.66;5091352;28;20488;-32
2021/12/05 14:35:11;;;;;;;1999.90;999.90;;;;;;;9.43;100.00;98586.44;5091960;28;20043;-32
2021/12/05 14:37:42;;;;;;;1999.90;999.90;;;;;;;9.40;100.00;98580.88;5092003;28;20082;-32
2021/12/05 14:40:22;;;;;;;1999.90;999.90;;;;;;;9.28;100.00;98579.25;5091921;28;20023;-32
2021/12/05 14:42:51;;;;;;;1999.90;999.90;;;;;;;9.27;100.00;98582.16;5091970;28;20081;-32
2021/12/05 14:45:21;;;;;;;1999.90;999.90;;;;;;;9.24;100.00;98575.50;5091942;28;20035;-32
2021/12/05 14:47:48;;;;;;;1999.90;999.90;;;;;;;9.30;100.00;98572.88;5091936;28;20020;-32
2021/12/05 14:50:20;;;;;;;1999.90;999.90;;;;;;;9.19;100.00;98578.16;5091838;28;20526;-32
2021/12/05 14:52:49;;;;;;;1999.90;999.90;;;;;;;9.20;100.00;98578.94;5091025;28;20403;-32
2021/12/05 14:55:18;;;;;;;1999.90;999.90;;;;;;;9.18;100.00;98560.59;5090545;28;20089;-32
2021/12/05 14:57:56;;;;;;;1999.90;999.90;;;;;;;9.15;100.00;98570.94;5092126;28;20028;-32
2021/12/05 15:00:27;;;;;;;1999.90;999.90;;;;;;;9.07;100.00;98569.59;5091732;28;20023;-32
2021/12/05 15:03:14;;;;;;;1999.90;999.90;;;;;;;9.11;100.00;98566.16;5091810;28;20105;-32
2021/12/05 15:05:44;;;;;;;1999.90;999.90;;;;;;;9.13;100.00;98579.19;5091782;28;20028;-32
2021/12/05 15:08:13;;;;;;;1999.90;999.90;;;;;;;9.10;100.00;98569.09;5091687;28;20473;-32
2021/12/05 15:10:41;;;;;;;1999.90;999.90;;;;;;;9.08;100.00;98565.91;5091858;28;20028;-32
2021/12/05 15:13:09;;;;;;;1999.90;999.90;;;;;;;9.07;100.00;98564.28;5091526;28;20102;-32
2021/12/05 15:15:35;;;;;;;1999.90;999.90;;;;;;;9.09;100.00;98562.97;5091871;28;20453;-32
2021/12/05 15:18:02;;;;;;;1999.90;999.90;;;;;;;9.14;100.00;98564.84;5091660;28;20032;-32
2021/12/05 15:20:30;;;;;;;1999.90;999.90;;;;;;;9.12;100.00;98564.31;5091813;28;20093;-32
2021/12/05 15:23:02;;;;;;;1999.90;999.90;;;;;;;9.13;100.00;98573.88;5091861;28;20028;-32
2021/12/05 15:25:28;;;;;;;1999.90;999.90;;;;;;;9.14;100.00;98574.69;5091635;28;20577;-32
2021/12/05 15:27:55;;;;;;;1999.90;999.90;;;;;;;9.18;100.00;98586.41;5091494;28;20024;-32
2021/12/05 15:30:33;;;;;;;1999.90;999.90;;;;;;;9.13;100.00;98579.19;5091728;28;20086;-32
2021/12/05 15:33:03;;;;;;;1999.90;999.90;;;;;;;9.10;100.00;98569.91;5091800;28;20024;-32
2021/12/05 15:35:29;;;;;;;1999.90;999.90;;;;;;;9.13;100.00;98576.53;5091373;28;20051;-32
2021/12/05 15:37:57;;;;;;;;;;;;;;;9.11;100.00;98568.03;5092719;28;20024;-32
2021/12/05 15:40:24;;;;;;;1999.90;999.90;;;;;;;9.08;100.00;98565.91;5091643;28;19912;-32
2021/12/05 15:42:51;;;;;;;1999.90;999.90;;;;;;;9.07;100.00;98569.59;5091372;28;20040;-32
2021/12/05 15:45:19;;;;;;;1999.90;999.90;;;;;;;8.98;100.00;98564.00;5094759;28;20510;-33
2021/12/05 15:47:46;;;;;;;1999.90;999.90;;;;;;;9.00;100.00;98569.06;5095150;28;20032;-32
2021/12/05 15:50:20;;;;;;;1999.90;999.90;;;;;;;9.01;100.00;98571.44;5095041;28;20028;-32
2021/12/05 15:52:55;;;;;;;1999.90;999.90;;;;;;;9.06;100.00;98574.13;5095029;28;20020;-32
2021/12/05 15:55:31;;;;;;;1999.90;999.90;;;;;;;9.13;100.00;98571.22;5094929;28;20561;-33
2021/12/05 15:58:10;;;;;;;1999.90;999.90;;;;;;;9.07;100.00;98574.91;5094971;28;20024;-32
2021/12/05 16:00:40;;;;;;;1999.90;999.90;;;;;;;9.09;100.00;98581.59;5095104;28;20446;-32
2021/12/05 16:03:15;;;;;;;1999.90;999.90;;;;;;;9.07;100.00;98583.72;5094854;28;20020;-32
2021/12/05 16:05:42;;;;;;;1999.90;999.90;;;;;;;9.15;100.00;98579.75;5093522;28;20035;-32
2021/12/05 16:08:15;;;;;;;1999.90;999.90;;;;;;;9.18;100.00;98587.19;5094431;28;20027;-32
2021/12/05 16:10:45;;;;;;;1999.90;999.90;;;;;;;9.22;100.00;98592.78;5093423;28;20024;-32
2021/12/05 16:13:20;;;;;;;1999.90;999.90;;;;;;;9.16;100.00;98586.66;5094309;28;20100;-32
2021/12/05 16:15:51;;;;;;;1999.90;999.90;;;;;;;9.22;100.00;98582.97;5094343;28;20568;-32
2021/12/05 16:18:18;;;;;;;1999.90;999.90;;;;;;;9.21;100.00;98585.88;5094465;28;20110;-32
2021/12/05 16:20:46;;;;;;;1999.90;999.90;;;;;;;9.25;100.00;98592.28;5094629;28;20028;-32
2021/12/05 16:23:19;;;;;;;1999.90;999.90;;;;;;;9.23;100.00;98594.38;5094388;28;20031;-32
2021/12/05 16:25:56;;;;;;;1999.90;999.90;;;;;;;9.20;100.00;98592.25;5094819;28;20024;-32